sensor_id;sensor_type;location;lat;lon;timestamp;P1;durP1;ratioP1;P2;durP2;ratioP2
5555;SDS011;2801;50.972;7.856;2024-03-02T00:00:39;8.13;;;5.20;;
5555;SDS011;2801;50.972;7.856;2024-03-02T00:03:06;9.23;;;5.57;;
5555;SDS011;2801;50.972;7.856;2024-03-02T00:05:35;8.83;;;5.77;;
5555;SDS011;2801;50.972;7.856;2024-03-02T00:08:02;10.20;;;5.73;;
5555;SDS011;2801;50.972;7.856;2024-03-02T00:10:39;9.63;;;5.57;;
5555;SDS011;2801;50.972;7.856;2024-03-02T00:13:07;9.00;;;5.57;;
5555;SDS011;2801;50.972;7.856;2024-03-02T00:15:47;8.57;;;5.60;;
5555;SDS011;2801;50.972;7.856;2024-03-02T00:18:31;10.07;;;5.47;;
5555;SDS011;2801;50.972;7.856;2024-03-02T00:21:03;11.40;;;6.10;;
5555;SDS011;2801;50.972;7.856;2024-03-02T00:23:33;9.30;;;6.20;;
5555;SDS011;2801;50.972;7.856;2024-03-02T00:26:01;8.07;;;5.23;;
5555;SDS011;2801;50.972;7.856;2024-03-02T00:28:33;10.30;;;6.30;;
5555;SDS011;2801;50.972;7.856;2024-03-02T00:31:05;9.03;;;5.47;;
5555;SDS011;2801;50.972;7.856;2024-03-02T00:33:35;9.63;;;6.17;;
5555;SDS011;2801;50.972;7.856;2024-03-02T00:36:04;9.77;;;6.00;;
5555;SDS011;2801;50.972;7.856;2024-03-02T00:38:33;8.57;;;5.60;;
5555;SDS011;2801;50.972;7.856;2024-03-02T00:41:08;9.60;;;6.03;;
5555;SDS011;2801;50.972;7.856;2024-03-02T00:43:59;11.60;;;6.10;;
5555;SDS011;2801;50.972;7.856;2024-03-02T00:46:33;9.30;;;5.87;;
5555;SDS011;2801;50.972;7.856;2024-03-02T00:51:37;9.03;;;5.93;;
5555;SDS011;2801;50.972;7.856;2024-03-02T00:54:07;10.13;;;5.97;;
5555;SDS011;2801;50.972;7.856;2024-03-02T00:56:35;9.50;;;5.43;;
5555;SDS011;2801;50.972;7.856;2024-03-02T00:59:02;11.53;;;6.07;;
5555;SDS011;2801;50.972;7.856;2024-03-02T01:01:29;10.53;;;5.60;;
5555;SDS011;2801;50.972;7.856;2024-03-02T01:03:56;9.77;;;6.00;;
5555;SDS011;2801;50.972;7.856;2024-03-02T01:06:23;10.27;;;6.40;;
5555;SDS011;2801;50.972;7.856;2024-03-02T01:08:50;9.60;;;5.50;;
5555;SDS011;2801;50.972;7.856;2024-03-02T01:11:19;9.67;;;5.80;;
5555;SDS011;2801;50.972;7.856;2024-03-02T01:13:50;9.77;;;6.00;;
5555;SDS011;2801;50.972;7.856;2024-03-02T01:16:19;9.10;;;5.77;;
5555;SDS011;2801;50.972;7.856;2024-03-02T01:18:46;9.03;;;5.87;;
5555;SDS011;2801;50.972;7.856;2024-03-02T01:21:14;9.60;;;5.27;;
5555;SDS011;2801;50.972;7.856;2024-03-02T01:23:41;8.67;;;5.27;;
5555;SDS011;2801;50.972;7.856;2024-03-02T01:26:08;9.47;;;5.63;;
5555;SDS011;2801;50.972;7.856;2024-03-02T01:28:35;9.37;;;5.80;;
5555;SDS011;2801;50.972;7.856;2024-03-02T01:31:02;9.80;;;5.67;;
5555;SDS011;2801;50.972;7.856;2024-03-02T01:33:29;9.47;;;5.43;;
5555;SDS011;2801;50.972;7.856;2024-03-02T01:35:56;11.27;;;5.60;;
5555;SDS011;2801;50.972;7.856;2024-03-02T01:38:23;8.17;;;5.10;;
5555;SDS011;2801;50.972;7.856;2024-03-02T01:40:50;11.03;;;5.27;;
5555;SDS011;2801;50.972;7.856;2024-03-02T01:43:18;8.03;;;4.67;;
5555;SDS011;2801;50.972;7.856;2024-03-02T01:45:45;7.30;;;5.13;;
5555;SDS011;2801;50.972;7.856;2024-03-02T01:48:12;8.93;;;4.93;;
5555;SDS011;2801;50.972;7.856;2024-03-02T01:50:39;8.07;;;4.80;;
5555;SDS011;2801;50.972;7.856;2024-03-02T01:53:06;8.73;;;4.93;;
5555;SDS011;2801;50.972;7.856;2024-03-02T01:55:36;7.53;;;4.80;;
5555;SDS011;2801;50.972;7.856;2024-03-02T01:58:03;7.57;;;4.93;;
5555;SDS011;2801;50.972;7.856;2024-03-02T02:00:30;7.73;;;4.80;;
5555;SDS011;2801;50.972;7.856;2024-03-02T02:02:58;8.53;;;5.03;;
5555;SDS011;2801;50.972;7.856;2024-03-02T02:05:25;8.23;;;4.63;;
5555;SDS011;2801;50.972;7.856;2024-03-02T02:07:52;8.53;;;5.00;;
5555;SDS011;2801;50.972;7.856;2024-03-02T02:10:19;10.50;;;4.97;;
5555;SDS011;2801;50.972;7.856;2024-03-02T02:12:46;8.47;;;5.00;;
5555;SDS011;2801;50.972;7.856;2024-03-02T02:15:26;9.60;;;5.10;;
5555;SDS011;2801;50.972;7.856;2024-03-02T02:17:56;7.60;;;4.93;;
5555;SDS011;2801;50.972;7.856;2024-03-02T02:20:25;12.03;;;5.83;;
5555;SDS011;2801;50.972;7.856;2024-03-02T02:23:02;8.53;;;4.83;;
5555;SDS011;2801;50.972;7.856;2024-03-02T02:25:32;8.97;;;5.33;;
5555;SDS011;2801;50.972;7.856;2024-03-02T02:27:59;8.87;;;5.00;;
5555;SDS011;2801;50.972;7.856;2024-03-02T02:30:26;9.33;;;5.60;;
5555;SDS011;2801;50.972;7.856;2024-03-02T02:32:57;9.73;;;5.60;;
5555;SDS011;2801;50.972;7.856;2024-03-02T02:35:25;9.33;;;5.30;;
5555;SDS011;2801;50.972;7.856;2024-03-02T02:37:53;9.43;;;5.40;;
5555;SDS011;2801;50.972;7.856;2024-03-02T02:40:22;9.63;;;5.50;;
5555;SDS011;2801;50.972;7.856;2024-03-02T02:42:50;9.27;;;5.57;;
5555;SDS011;2801;50.972;7.856;2024-03-02T02:45:20;12.93;;;5.70;;
5555;SDS011;2801;50.972;7.856;2024-03-02T02:47:48;10.63;;;5.83;;
5555;SDS011;2801;50.972;7.856;2024-03-02T02:50:16;8.87;;;4.97;;
5555;SDS011;2801;50.972;7.856;2024-03-02T02:52:43;11.23;;;5.17;;
5555;SDS011;2801;50.972;7.856;2024-03-02T02:55:11;8.67;;;5.10;;
5555;SDS011;2801;50.972;7.856;2024-03-02T02:57:40;10.93;;;5.47;;
5555;SDS011;2801;50.972;7.856;2024-03-02T03:00:10;9.23;;;5.53;;
5555;SDS011;2801;50.972;7.856;2024-03-02T03:02:46;8.77;;;5.10;;
5555;SDS011;2801;50.972;7.856;2024-03-02T03:05:17;10.10;;;5.77;;
5555;SDS011;2801;50.972;7.856;2024-03-02T03:07:44;9.63;;;5.70;;
5555;SDS011;2801;50.972;7.856;2024-03-02T03:10:12;11.20;;;6.67;;
5555;SDS011;2801;50.972;7.856;2024-03-02T03:12:41;11.93;;;6.37;;
5555;SDS011;2801;50.972;7.856;2024-03-02T03:15:10;10.43;;;6.30;;
5555;SDS011;2801;50.972;7.856;2024-03-02T03:17:38;12.47;;;7.03;;
5555;SDS011;2801;50.972;7.856;2024-03-02T03:20:05;13.50;;;7.70;;
5555;SDS011;2801;50.972;7.856;2024-03-02T03:22:37;13.63;;;7.70;;
5555;SDS011;2801;50.972;7.856;2024-03-02T03:25:05;13.93;;;7.43;;
5555;SDS011;2801;50.972;7.856;2024-03-02T03:27:34;12.17;;;7.53;;
5555;SDS011;2801;50.972;7.856;2024-03-02T03:30:02;18.57;;;8.60;;
5555;SDS011;2801;50.972;7.856;2024-03-02T03:32:29;16.87;;;8.60;;
5555;SDS011;2801;50.972;7.856;2024-03-02T03:34:56;14.27;;;8.43;;
5555;SDS011;2801;50.972;7.856;2024-03-02T03:37:23;15.13;;;7.87;;
5555;SDS011;2801;50.972;7.856;2024-03-02T03:39:52;15.40;;;8.37;;
5555;SDS011;2801;50.972;7.856;2024-03-02T03:42:19;18.97;;;8.67;;
5555;SDS011;2801;50.972;7.856;2024-03-02T03:44:46;17.87;;;9.20;;
5555;SDS011;2801;50.972;7.856;2024-03-02T03:47:12;14.67;;;8.33;;
5555;SDS011;2801;50.972;7.856;2024-03-02T03:49:39;15.67;;;8.37;;
5555;SDS011;2801;50.972;7.856;2024-03-02T03:52:06;16.60;;;8.63;;
5555;SDS011;2801;50.972;7.856;2024-03-02T03:54:33;17.30;;;9.43;;
5555;SDS011;2801;50.972;7.856;2024-03-02T03:57:00;16.07;;;8.43;;
5555;SDS011;2801;50.972;7.856;2024-03-02T03:59:27;15.80;;;8.67;;
5555;SDS011;2801;50.972;7.856;2024-03-02T04:01:54;15.90;;;9.10;;
5555;SDS011;2801;50.972;7.856;2024-03-02T04:04:22;17.43;;;9.00;;
5555;SDS011;2801;50.972;7.856;2024-03-02T04:06:48;17.03;;;8.97;;
5555;SDS011;2801;50.972;7.856;2024-03-02T04:09:15;15.00;;;8.80;;
5555;SDS011;2801;50.972;7.856;2024-03-02T04:11:43;20.33;;;9.70;;
5555;SDS011;2801;50.972;7.856;2024-03-02T04:14:09;16.20;;;8.63;;
5555;SDS011;2801;50.972;7.856;2024-03-02T04:16:36;16.27;;;9.40;;
5555;SDS011;2801;50.972;7.856;2024-03-02T04:19:03;17.33;;;9.30;;
5555;SDS011;2801;50.972;7.856;2024-03-02T04:21:31;17.53;;;9.70;;
5555;SDS011;2801;50.972;7.856;2024-03-02T04:23:58;16.77;;;8.93;;
5555;SDS011;2801;50.972;7.856;2024-03-02T04:26:26;14.13;;;8.23;;
5555;SDS011;2801;50.972;7.856;2024-03-02T04:28:53;16.50;;;9.03;;
5555;SDS011;2801;50.972;7.856;2024-03-02T04:31:20;16.43;;;9.20;;
5555;SDS011;2801;50.972;7.856;2024-03-02T04:33:48;16.27;;;9.00;;
5555;SDS011;2801;50.972;7.856;2024-03-02T04:36:15;17.23;;;8.73;;
5555;SDS011;2801;50.972;7.856;2024-03-02T04:38:42;18.10;;;9.37;;
5555;SDS011;2801;50.972;7.856;2024-03-02T04:41:09;16.90;;;8.47;;
5555;SDS011;2801;50.972;7.856;2024-03-02T04:43:36;16.50;;;8.63;;
5555;SDS011;2801;50.972;7.856;2024-03-02T04:46:03;14.43;;;8.03;;
5555;SDS011;2801;50.972;7.856;2024-03-02T04:48:32;14.37;;;7.93;;
5555;SDS011;2801;50.972;7.856;2024-03-02T04:50:59;17.07;;;9.13;;
5555;SDS011;2801;50.972;7.856;2024-03-02T04:53:27;14.83;;;8.23;;
5555;SDS011;2801;50.972;7.856;2024-03-02T04:55:54;15.80;;;7.77;;
5555;SDS011;2801;50.972;7.856;2024-03-02T04:58:39;15.17;;;8.03;;
5555;SDS011;2801;50.972;7.856;2024-03-02T05:01:06;15.13;;;7.20;;
5555;SDS011;2801;50.972;7.856;2024-03-02T05:03:33;17.27;;;8.40;;
5555;SDS011;2801;50.972;7.856;2024-03-02T05:06:01;15.40;;;7.83;;
5555;SDS011;2801;50.972;7.856;2024-03-02T05:08:28;15.07;;;8.37;;
5555;SDS011;2801;50.972;7.856;2024-03-02T05:10:55;12.27;;;6.20;;
5555;SDS011;2801;50.972;7.856;2024-03-02T05:13:42;12.07;;;5.83;;
5555;SDS011;2801;50.972;7.856;2024-03-02T05:16:08;10.37;;;5.50;;
5555;SDS011;2801;50.972;7.856;2024-03-02T05:18:37;17.43;;;9.13;;
5555;SDS011;2801;50.972;7.856;2024-03-02T05:21:04;15.07;;;8.17;;
5555;SDS011;2801;50.972;7.856;2024-03-02T05:23:31;21.50;;;9.50;;
5555;SDS011;2801;50.972;7.856;2024-03-02T05:25:58;14.07;;;8.00;;
5555;SDS011;2801;50.972;7.856;2024-03-02T05:28:25;16.13;;;8.87;;
5555;SDS011;2801;50.972;7.856;2024-03-02T05:30:52;18.13;;;8.63;;
5555;SDS011;2801;50.972;7.856;2024-03-02T05:33:19;16.87;;;8.90;;
5555;SDS011;2801;50.972;7.856;2024-03-02T05:35:49;16.97;;;8.53;;
5555;SDS011;2801;50.972;7.856;2024-03-02T05:38:18;17.33;;;9.13;;
5555;SDS011;2801;50.972;7.856;2024-03-02T05:40:45;17.47;;;9.63;;
5555;SDS011;2801;50.972;7.856;2024-03-02T05:43:12;17.37;;;8.70;;
5555;SDS011;2801;50.972;7.856;2024-03-02T05:45:39;15.23;;;8.73;;
5555;SDS011;2801;50.972;7.856;2024-03-02T05:48:07;16.47;;;8.63;;
5555;SDS011;2801;50.972;7.856;2024-03-02T05:50:35;16.80;;;9.27;;
5555;SDS011;2801;50.972;7.856;2024-03-02T05:53:02;14.43;;;7.97;;
5555;SDS011;2801;50.972;7.856;2024-03-02T05:55:29;17.03;;;8.33;;
5555;SDS011;2801;50.972;7.856;2024-03-02T05:57:57;18.20;;;8.77;;
5555;SDS011;2801;50.972;7.856;2024-03-02T06:00:33;15.27;;;8.33;;
5555;SDS011;2801;50.972;7.856;2024-03-02T06:03:00;15.90;;;8.43;;
5555;SDS011;2801;50.972;7.856;2024-03-02T06:05:27;18.80;;;9.43;;
5555;SDS011;2801;50.972;7.856;2024-03-02T06:07:54;15.97;;;8.73;;
5555;SDS011;2801;50.972;7.856;2024-03-02T06:10:21;15.77;;;8.53;;
5555;SDS011;2801;50.972;7.856;2024-03-02T06:12:47;16.60;;;9.67;;
5555;SDS011;2801;50.972;7.856;2024-03-02T06:15:14;17.20;;;9.07;;
5555;SDS011;2801;50.972;7.856;2024-03-02T06:17:41;15.93;;;8.93;;
5555;SDS011;2801;50.972;7.856;2024-03-02T06:20:09;17.43;;;9.60;;
5555;SDS011;2801;50.972;7.856;2024-03-02T06:22:36;17.97;;;9.60;;
5555;SDS011;2801;50.972;7.856;2024-03-02T06:25:03;16.03;;;9.77;;
5555;SDS011;2801;50.972;7.856;2024-03-02T06:27:31;19.37;;;9.13;;
5555;SDS011;2801;50.972;7.856;2024-03-02T06:29:58;15.37;;;8.77;;
5555;SDS011;2801;50.972;7.856;2024-03-02T06:32:25;16.23;;;8.97;;
5555;SDS011;2801;50.972;7.856;2024-03-02T06:34:52;16.87;;;8.63;;
5555;SDS011;2801;50.972;7.856;2024-03-02T06:37:19;16.47;;;9.00;;
5555;SDS011;2801;50.972;7.856;2024-03-02T06:39:46;16.63;;;9.07;;
5555;SDS011;2801;50.972;7.856;2024-03-02T06:42:13;18.10;;;8.93;;
5555;SDS011;2801;50.972;7.856;2024-03-02T06:44:40;13.83;;;7.60;;
5555;SDS011;2801;50.972;7.856;2024-03-02T06:47:07;15.67;;;8.27;;
5555;SDS011;2801;50.972;7.856;2024-03-02T06:49:33;17.07;;;8.30;;
5555;SDS011;2801;50.972;7.856;2024-03-02T06:52:01;17.57;;;9.40;;
5555;SDS011;2801;50.972;7.856;2024-03-02T06:54:29;14.07;;;7.80;;
5555;SDS011;2801;50.972;7.856;2024-03-02T06:56:55;15.87;;;8.67;;
5555;SDS011;2801;50.972;7.856;2024-03-02T06:59:22;16.17;;;8.07;;
5555;SDS011;2801;50.972;7.856;2024-03-02T07:01:50;15.40;;;8.70;;
5555;SDS011;2801;50.972;7.856;2024-03-02T07:04:17;13.77;;;7.90;;
5555;SDS011;2801;50.972;7.856;2024-03-02T07:06:44;16.50;;;8.80;;
5555;SDS011;2801;50.972;7.856;2024-03-02T07:09:12;17.60;;;9.77;;
5555;SDS011;2801;50.972;7.856;2024-03-02T07:11:38;15.63;;;9.03;;
5555;SDS011;2801;50.972;7.856;2024-03-02T07:14:05;16.43;;;8.33;;
5555;SDS011;2801;50.972;7.856;2024-03-02T07:16:33;13.73;;;8.17;;
5555;SDS011;2801;50.972;7.856;2024-03-02T07:19:00;14.70;;;8.40;;
5555;SDS011;2801;50.972;7.856;2024-03-02T07:21:28;15.27;;;7.23;;
5555;SDS011;2801;50.972;7.856;2024-03-02T07:23:55;15.13;;;8.00;;
5555;SDS011;2801;50.972;7.856;2024-03-02T07:26:22;14.40;;;7.67;;
5555;SDS011;2801;50.972;7.856;2024-03-02T07:28:53;16.47;;;8.77;;
5555;SDS011;2801;50.972;7.856;2024-03-02T07:31:19;13.73;;;7.03;;
5555;SDS011;2801;50.972;7.856;2024-03-02T07:33:46;15.27;;;7.87;;
5555;SDS011;2801;50.972;7.856;2024-03-02T07:36:14;14.07;;;7.90;;
5555;SDS011;2801;50.972;7.856;2024-03-02T07:38:41;13.73;;;7.03;;
5555;SDS011;2801;50.972;7.856;2024-03-02T07:41:11;14.47;;;8.37;;
5555;SDS011;2801;50.972;7.856;2024-03-02T07:43:38;13.93;;;7.60;;
5555;SDS011;2801;50.972;7.856;2024-03-02T07:46:05;10.47;;;6.37;;
5555;SDS011;2801;50.972;7.856;2024-03-02T07:48:33;14.83;;;7.67;;
5555;SDS011;2801;50.972;7.856;2024-03-02T07:51:00;12.63;;;7.50;;
5555;SDS011;2801;50.972;7.856;2024-03-02T07:53:28;11.93;;;6.70;;
5555;SDS011;2801;50.972;7.856;2024-03-02T07:55:55;12.07;;;7.20;;
5555;SDS011;2801;50.972;7.856;2024-03-02T07:58:28;14.57;;;7.57;;
5555;SDS011;2801;50.972;7.856;2024-03-02T08:00:56;10.63;;;6.37;;
5555;SDS011;2801;50.972;7.856;2024-03-02T08:03:24;13.07;;;6.43;;
5555;SDS011;2801;50.972;7.856;2024-03-02T08:05:51;10.77;;;6.37;;
5555;SDS011;2801;50.972;7.856;2024-03-02T08:08:19;10.03;;;5.10;;
5555;SDS011;2801;50.972;7.856;2024-03-02T08:10:46;9.67;;;5.97;;
5555;SDS011;2801;50.972;7.856;2024-03-02T08:13:12;11.00;;;6.22;;
5555;SDS011;2801;50.972;7.856;2024-03-02T08:15:40;10.48;;;5.35;;
5555;SDS011;2801;50.972;7.856;2024-03-02T08:18:07;5.38;;;3.20;;
5555;SDS011;2801;50.972;7.856;2024-03-02T08:20:34;4.93;;;2.83;;
5555;SDS011;2801;50.972;7.856;2024-03-02T08:23:01;4.50;;;3.30;;
5555;SDS011;2801;50.972;7.856;2024-03-02T08:25:28;6.03;;;2.45;;
5555;SDS011;2801;50.972;7.856;2024-03-02T08:27:56;4.72;;;2.80;;
5555;SDS011;2801;50.972;7.856;2024-03-02T08:30:23;6.07;;;3.10;;
5555;SDS011;2801;50.972;7.856;2024-03-02T08:32:50;4.60;;;3.05;;
5555;SDS011;2801;50.972;7.856;2024-03-02T08:35:18;5.18;;;2.83;;
5555;SDS011;2801;50.972;7.856;2024-03-02T08:37:44;4.07;;;2.60;;
5555;SDS011;2801;50.972;7.856;2024-03-02T08:40:11;4.15;;;2.65;;
5555;SDS011;2801;50.972;7.856;2024-03-02T08:42:44;5.25;;;1.98;;
5555;SDS011;2801;50.972;7.856;2024-03-02T08:45:12;4.68;;;3.03;;
5555;SDS011;2801;50.972;7.856;2024-03-02T08:47:39;4.75;;;2.40;;
5555;SDS011;2801;50.972;7.856;2024-03-02T08:50:06;4.47;;;2.60;;
5555;SDS011;2801;50.972;7.856;2024-03-02T08:52:34;4.22;;;2.90;;
5555;SDS011;2801;50.972;7.856;2024-03-02T08:55:02;5.50;;;3.20;;
5555;SDS011;2801;50.972;7.856;2024-03-02T08:57:29;3.80;;;2.47;;
5555;SDS011;2801;50.972;7.856;2024-03-02T08:59:57;3.60;;;2.70;;
5555;SDS011;2801;50.972;7.856;2024-03-02T09:02:24;5.85;;;2.40;;
5555;SDS011;2801;50.972;7.856;2024-03-02T09:04:51;3.25;;;2.78;;
5555;SDS011;2801;50.972;7.856;2024-03-02T09:07:18;4.22;;;2.63;;
5555;SDS011;2801;50.972;7.856;2024-03-02T09:09:45;3.80;;;3.00;;
5555;SDS011;2801;50.972;7.856;2024-03-02T09:12:12;4.88;;;2.80;;
5555;SDS011;2801;50.972;7.856;2024-03-02T09:14:40;4.15;;;2.80;;
5555;SDS011;2801;50.972;7.856;2024-03-02T09:17:07;3.95;;;2.83;;
5555;SDS011;2801;50.972;7.856;2024-03-02T09:19:37;4.65;;;2.97;;
5555;SDS011;2801;50.972;7.856;2024-03-02T09:22:04;3.72;;;2.75;;
5555;SDS011;2801;50.972;7.856;2024-03-02T09:24:32;5.53;;;2.95;;
5555;SDS011;2801;50.972;7.856;2024-03-02T09:27:01;3.80;;;2.42;;
5555;SDS011;2801;50.972;7.856;2024-03-02T09:29:29;4.75;;;2.78;;
5555;SDS011;2801;50.972;7.856;2024-03-02T09:31:56;3.75;;;2.70;;
5555;SDS011;2801;50.972;7.856;2024-03-02T09:34:22;5.35;;;2.90;;
5555;SDS011;2801;50.972;7.856;2024-03-02T09:36:52;4.63;;;3.03;;
5555;SDS011;2801;50.972;7.856;2024-03-02T09:39:19;4.00;;;2.63;;
5555;SDS011;2801;50.972;7.856;2024-03-02T09:41:47;4.63;;;2.63;;
5555;SDS011;2801;50.972;7.856;2024-03-02T09:44:14;4.20;;;2.83;;
5555;SDS011;2801;50.972;7.856;2024-03-02T09:46:41;5.72;;;2.80;;
5555;SDS011;2801;50.972;7.856;2024-03-02T09:49:10;5.25;;;2.42;;
5555;SDS011;2801;50.972;7.856;2024-03-02T09:51:37;4.15;;;2.65;;
5555;SDS011;2801;50.972;7.856;2024-03-02T09:54:07;5.68;;;2.53;;
5555;SDS011;2801;50.972;7.856;2024-03-02T09:56:47;5.18;;;2.80;;
5555;SDS011;2801;50.972;7.856;2024-03-02T09:59:14;3.38;;;2.65;;
5555;SDS011;2801;50.972;7.856;2024-03-02T10:01:59;5.47;;;2.05;;
5555;SDS011;2801;50.972;7.856;2024-03-02T10:04:28;4.22;;;1.63;;
5555;SDS011;2801;50.972;7.856;2024-03-02T10:07:11;5.60;;;2.50;;
5555;SDS011;2801;50.972;7.856;2024-03-02T10:09:43;4.85;;;2.15;;
5555;SDS011;2801;50.972;7.856;2024-03-02T10:12:13;3.20;;;2.30;;
5555;SDS011;2801;50.972;7.856;2024-03-02T10:14:43;4.72;;;2.35;;
5555;SDS011;2801;50.972;7.856;2024-03-02T10:17:11;3.30;;;2.00;;
5555;SDS011;2801;50.972;7.856;2024-03-02T10:19:39;4.78;;;2.13;;
5555;SDS011;2801;50.972;7.856;2024-03-02T10:22:07;3.00;;;2.30;;
5555;SDS011;2801;50.972;7.856;2024-03-02T10:24:42;3.75;;;1.92;;
5555;SDS011;2801;50.972;7.856;2024-03-02T10:27:17;2.70;;;1.90;;
5555;SDS011;2801;50.972;7.856;2024-03-02T10:29:49;3.20;;;1.65;;
5555;SDS011;2801;50.972;7.856;2024-03-02T10:32:16;4.30;;;1.98;;
5555;SDS011;2801;50.972;7.856;2024-03-02T10:34:44;3.92;;;1.48;;
5555;SDS011;2801;50.972;7.856;2024-03-02T10:37:13;2.83;;;1.83;;
5555;SDS011;2801;50.972;7.856;2024-03-02T10:39:41;3.20;;;1.80;;
5555;SDS011;2801;50.972;7.856;2024-03-02T10:42:09;2.35;;;1.70;;
5555;SDS011;2801;50.972;7.856;2024-03-02T10:44:36;2.25;;;1.92;;
5555;SDS011;2801;50.972;7.856;2024-03-02T10:47:04;2.70;;;1.60;;
5555;SDS011;2801;50.972;7.856;2024-03-02T10:49:32;3.25;;;1.77;;
5555;SDS011;2801;50.972;7.856;2024-03-02T10:51:59;3.85;;;1.48;;
5555;SDS011;2801;50.972;7.856;2024-03-02T10:54:28;3.08;;;1.35;;
5555;SDS011;2801;50.972;7.856;2024-03-02T10:57:04;2.13;;;1.38;;
5555;SDS011;2801;50.972;7.856;2024-03-02T10:59:36;1.70;;;1.38;;
5555;SDS011;2801;50.972;7.856;2024-03-02T11:02:10;2.45;;;1.20;;
5555;SDS011;2801;50.972;7.856;2024-03-02T11:04:40;2.20;;;1.45;;
5555;SDS011;2801;50.972;7.856;2024-03-02T11:07:11;1.77;;;1.40;;
5555;SDS011;2801;50.972;7.856;2024-03-02T11:09:45;1.75;;;1.10;;
5555;SDS011;2801;50.972;7.856;2024-03-02T11:12:36;2.22;;;1.52;;
5555;SDS011;2801;50.972;7.856;2024-03-02T11:15:22;2.95;;;1.42;;
5555;SDS011;2801;50.972;7.856;2024-03-02T11:17:52;2.22;;;1.30;;
5555;SDS011;2801;50.972;7.856;2024-03-02T11:20:21;1.67;;;1.13;;
5555;SDS011;2801;50.972;7.856;2024-03-02T11:22:49;2.42;;;1.05;;
5555;SDS011;2801;50.972;7.856;2024-03-02T11:25:23;2.42;;;1.05;;
5555;SDS011;2801;50.972;7.856;2024-03-02T11:33:06;2.10;;;1.20;;
5555;SDS011;2801;50.972;7.856;2024-03-02T11:35:43;2.28;;;1.30;;
5555;SDS011;2801;50.972;7.856;2024-03-02T11:38:15;1.65;;;1.23;;
5555;SDS011;2801;50.972;7.856;2024-03-02T11:40:44;2.92;;;1.23;;
5555;SDS011;2801;50.972;7.856;2024-03-02T11:43:11;1.08;;;0.90;;
5555;SDS011;2801;50.972;7.856;2024-03-02T11:45:38;1.30;;;1.00;;
5555;SDS011;2801;50.972;7.856;2024-03-02T11:48:15;1.10;;;1.00;;
5555;SDS011;2801;50.972;7.856;2024-03-02T11:50:46;1.33;;;1.00;;
5555;SDS011;2801;50.972;7.856;2024-03-02T11:53:17;2.20;;;1.10;;
5555;SDS011;2801;50.972;7.856;2024-03-02T11:55:46;1.15;;;0.70;;
5555;SDS011;2801;50.972;7.856;2024-03-02T11:58:14;2.15;;;1.17;;
5555;SDS011;2801;50.972;7.856;2024-03-02T12:00:51;1.40;;;1.10;;
5555;SDS011;2801;50.972;7.856;2024-03-02T12:03:20;4.00;;;1.30;;
5555;SDS011;2801;50.972;7.856;2024-03-02T12:05:49;1.90;;;1.40;;
5555;SDS011;2801;50.972;7.856;2024-03-02T12:08:17;2.75;;;1.50;;
5555;SDS011;2801;50.972;7.856;2024-03-02T12:10:55;1.73;;;1.20;;
5555;SDS011;2801;50.972;7.856;2024-03-02T12:13:29;1.63;;;1.33;;
5555;SDS011;2801;50.972;7.856;2024-03-02T12:15:57;2.08;;;1.27;;
5555;SDS011;2801;50.972;7.856;2024-03-02T12:18:24;2.90;;;1.40;;
5555;SDS011;2801;50.972;7.856;2024-03-02T12:20:52;2.03;;;1.48;;
5555;SDS011;2801;50.972;7.856;2024-03-02T12:23:23;1.73;;;1.20;;
5555;SDS011;2801;50.972;7.856;2024-03-02T12:25:50;2.22;;;1.52;;
5555;SDS011;2801;50.972;7.856;2024-03-02T12:28:17;2.33;;;1.38;;
5555;SDS011;2801;50.972;7.856;2024-03-02T12:30:45;7.07;;;1.65;;
5555;SDS011;2801;50.972;7.856;2024-03-02T12:33:17;1.67;;;1.38;;
5555;SDS011;2801;50.972;7.856;2024-03-02T12:35:44;1.90;;;1.30;;
5555;SDS011;2801;50.972;7.856;2024-03-02T12:38:11;2.97;;;1.58;;
5555;SDS011;2801;50.972;7.856;2024-03-02T12:40:39;1.55;;;1.30;;
5555;SDS011;2801;50.972;7.856;2024-03-02T12:43:06;2.05;;;1.30;;
5555;SDS011;2801;50.972;7.856;2024-03-02T12:45:34;1.90;;;1.13;;
5555;SDS011;2801;50.972;7.856;2024-03-02T12:48:02;4.70;;;1.88;;
5555;SDS011;2801;50.972;7.856;2024-03-02T12:50:30;3.03;;;1.60;;
5555;SDS011;2801;50.972;7.856;2024-03-02T12:52:58;2.85;;;1.40;;
5555;SDS011;2801;50.972;7.856;2024-03-02T12:55:25;2.85;;;1.48;;
5555;SDS011;2801;50.972;7.856;2024-03-02T12:57:52;2.55;;;1.70;;
5555;SDS011;2801;50.972;7.856;2024-03-02T13:00:20;2.35;;;1.75;;
5555;SDS011;2801;50.972;7.856;2024-03-02T13:02:49;0.80;;;0.63;;
5555;SDS011;2801;50.972;7.856;2024-03-02T13:05:18;1.90;;;1.17;;
5555;SDS011;2801;50.972;7.856;2024-03-02T13:07:47;2.60;;;1.30;;
5555;SDS011;2801;50.972;7.856;2024-03-02T13:10:15;2.30;;;1.42;;
5555;SDS011;2801;50.972;7.856;2024-03-02T13:12:44;2.72;;;1.33;;
5555;SDS011;2801;50.972;7.856;2024-03-02T13:15:11;1.95;;;1.08;;
5555;SDS011;2801;50.972;7.856;2024-03-02T13:17:44;2.50;;;1.50;;
5555;SDS011;2801;50.972;7.856;2024-03-02T13:20:15;2.45;;;1.10;;
5555;SDS011;2801;50.972;7.856;2024-03-02T13:22:44;1.30;;;1.00;;
5555;SDS011;2801;50.972;7.856;2024-03-02T13:25:11;2.13;;;1.45;;
5555;SDS011;2801;50.972;7.856;2024-03-02T13:27:38;2.00;;;1.38;;
5555;SDS011;2801;50.972;7.856;2024-03-02T13:30:06;1.70;;;1.10;;
5555;SDS011;2801;50.972;7.856;2024-03-02T13:32:35;1.30;;;0.95;;
5555;SDS011;2801;50.972;7.856;2024-03-02T13:35:02;3.00;;;1.33;;
5555;SDS011;2801;50.972;7.856;2024-03-02T13:37:30;1.63;;;1.15;;
5555;SDS011;2801;50.972;7.856;2024-03-02T13:39:57;1.38;;;0.98;;
5555;SDS011;2801;50.972;7.856;2024-03-02T13:42:24;1.20;;;1.00;;
5555;SDS011;2801;50.972;7.856;2024-03-02T13:44:52;0.77;;;0.65;;
5555;SDS011;2801;50.972;7.856;2024-03-02T13:47:19;1.23;;;0.77;;
5555;SDS011;2801;50.972;7.856;2024-03-02T13:49:47;1.73;;;0.90;;
5555;SDS011;2801;50.972;7.856;2024-03-02T13:52:15;3.40;;;1.08;;
5555;SDS011;2801;50.972;7.856;2024-03-02T13:54:46;1.38;;;1.00;;
5555;SDS011;2801;50.972;7.856;2024-03-02T13:57:14;2.55;;;0.73;;
5555;SDS011;2801;50.972;7.856;2024-03-02T13:59:42;3.08;;;1.00;;
5555;SDS011;2801;50.972;7.856;2024-03-02T14:02:10;1.58;;;1.00;;
5555;SDS011;2801;50.972;7.856;2024-03-02T14:04:38;2.15;;;0.90;;
5555;SDS011;2801;50.972;7.856;2024-03-02T14:07:06;0.75;;;0.52;;
5555;SDS011;2801;50.972;7.856;2024-03-02T14:09:34;3.95;;;0.77;;
5555;SDS011;2801;50.972;7.856;2024-03-02T14:12:01;2.50;;;0.70;;
5555;SDS011;2801;50.972;7.856;2024-03-02T14:14:29;1.63;;;0.90;;
5555;SDS011;2801;50.972;7.856;2024-03-02T14:16:56;2.58;;;0.90;;
5555;SDS011;2801;50.972;7.856;2024-03-02T14:19:30;0.90;;;0.70;;
5555;SDS011;2801;50.972;7.856;2024-03-02T14:21:57;2.83;;;0.70;;
5555;SDS011;2801;50.972;7.856;2024-03-02T14:24:25;1.90;;;0.75;;
5555;SDS011;2801;50.972;7.856;2024-03-02T14:26:54;0.85;;;0.65;;
5555;SDS011;2801;50.972;7.856;2024-03-02T14:29:35;0.70;;;0.60;;
5555;SDS011;2801;50.972;7.856;2024-03-02T14:32:04;1.35;;;0.90;;
5555;SDS011;2801;50.972;7.856;2024-03-02T14:34:32;1.67;;;1.00;;
5555;SDS011;2801;50.972;7.856;2024-03-02T14:37:01;1.20;;;0.98;;
5555;SDS011;2801;50.972;7.856;2024-03-02T14:39:32;2.00;;;1.05;;
5555;SDS011;2801;50.972;7.856;2024-03-02T14:42:01;1.90;;;1.00;;
5555;SDS011;2801;50.972;7.856;2024-03-02T14:44:28;1.17;;;0.80;;
5555;SDS011;2801;50.972;7.856;2024-03-02T14:46:55;0.70;;;0.68;;
5555;SDS011;2801;50.972;7.856;2024-03-02T14:49:25;2.65;;;1.63;;
5555;SDS011;2801;50.972;7.856;2024-03-02T14:51:53;4.55;;;1.10;;
5555;SDS011;2801;50.972;7.856;2024-03-02T14:54:20;1.85;;;1.00;;
5555;SDS011;2801;50.972;7.856;2024-03-02T14:56:47;2.85;;;0.90;;
5555;SDS011;2801;50.972;7.856;2024-03-02T14:59:14;2.08;;;1.02;;
5555;SDS011;2801;50.972;7.856;2024-03-02T15:01:41;1.88;;;1.08;;
5555;SDS011;2801;50.972;7.856;2024-03-02T15:04:08;4.10;;;0.77;;
5555;SDS011;2801;50.972;7.856;2024-03-02T15:06:35;1.00;;;0.60;;
5555;SDS011;2801;50.972;7.856;2024-03-02T15:09:06;1.48;;;0.88;;
5555;SDS011;2801;50.972;7.856;2024-03-02T15:11:36;0.60;;;0.60;;
5555;SDS011;2801;50.972;7.856;2024-03-02T15:14:03;7.50;;;0.90;;
5555;SDS011;2801;50.972;7.856;2024-03-02T15:16:30;1.30;;;0.75;;
5555;SDS011;2801;50.972;7.856;2024-03-02T15:18:57;2.40;;;0.73;;
5555;SDS011;2801;50.972;7.856;2024-03-02T15:21:24;1.20;;;0.70;;
5555;SDS011;2801;50.972;7.856;2024-03-02T15:23:51;1.77;;;0.70;;
5555;SDS011;2801;50.972;7.856;2024-03-02T15:26:18;0.93;;;0.65;;